Time;durP1;ratioP1;P1;durP2;ratioP2;P2;SDS_P1;SDS_P2;PMS_P1;PMS_P2;Temp;Humidity;BMP_temperature;BMP_pressure;BME280_temperature;BME280_humidity;BME280_pressure;Samples;Min_cycle;Max_cycle;Signal;HPM_P1;HPM_P2
2022/07/21 00:00:52;;;;;;;0.40;0.20;;;;;;;21.40;71.27;95595.59;5134425;27;20473;-55
2022/07/21 00:03:21;;;;;;;0.40;0.20;;;;;;;21.37;71.16;95599.75;5134875;27;20422;-56
2022/07/21 00:05:49;;;;;;;0.40;0.20;;;;;;;21.38;71.99;95593.22;5134500;27;20464;-55
2022/07/21 00:08:18;;;;;;;0.40;0.30;;;;;;;21.38;70.76;95598.63;5134546;27;20487;-55
2022/07/21 00:10:47;;;;;;;0.40;0.30;;;;;;;21.21;72.30;95593.38;5134875;27;20502;-55
2022/07/21 00:13:15;;;;;;;0.87;0.63;;;;;;;21.27;72.68;95600.16;5134692;27;20431;-55
2022/07/21 00:15:44;;;;;;;0.40;0.20;;;;;;;21.27;72.41;95605.53;5134289;27;20450;-56
2022/07/21 00:18:14;;;;;;;0.40;0.30;;;;;;;21.22;71.56;95605.75;5134516;27;20815;-55
2022/07/21 00:20:42;;;;;;;0.60;0.50;;;;;;;21.21;73.34;95601.47;5134743;27;20498;-56
2022/07/21 00:23:12;;;;;;;0.40;0.30;;;;;;;21.05;74.15;95578.88;5134323;27;20438;-55
2022/07/21 00:25:40;;;;;;;0.40;0.30;;;;;;;21.13;74.36;95604.22;5134351;27;20442;-55
2022/07/21 00:28:09;;;;;;;0.40;0.20;;;;;;;21.12;74.63;95606.13;5133211;27;20506;-55
2022/07/21 00:30:37;;;;;;;0.40;0.20;;;;;;;21.14;73.75;95601.19;5134405;27;20481;-56
2022/07/21 00:33:06;;;;;;;0.40;0.30;;;;;;;20.81;74.74;95562.56;5133704;27;20465;-56
2022/07/21 00:35:36;;;;;;;0.40;0.20;;;;;;;21.01;74.03;95599.53;5134377;27;20510;-56
2022/07/21 00:38:04;;;;;;;0.50;0.40;;;;;;;21.00;76.07;95603.31;5134065;27;20553;-56
2022/07/21 00:40:33;;;;;;;0.50;0.30;;;;;;;20.99;76.24;95599.06;5133328;27;20431;-56
2022/07/21 00:43:02;;;;;;;0.50;0.30;;;;;;;20.98;75.59;95588.59;5133465;27;20423;-56
2022/07/21 00:45:31;;;;;;;0.40;0.30;;;;;;;20.90;75.96;95599.13;5133619;27;20435;-56
2022/07/21 00:47:59;;;;;;;0.40;0.30;;;;;;;20.89;75.89;95592.16;5133965;27;20449;-56
2022/07/21 00:50:29;;;;;;;0.40;0.30;;;;;;;20.88;74.45;95592.47;5134084;27;20431;-56
2022/07/21 00:52:58;;;;;;;0.40;0.20;;;;;;;20.80;76.94;95596.81;5133392;27;20479;-56
2022/07/21 00:55:27;;;;;;;0.40;0.30;;;;;;;20.83;76.52;95593.47;5133688;27;20462;-56
2022/07/21 00:57:56;;;;;;;0.40;0.20;;;;;;;20.74;76.65;95568.50;5133630;27;20510;-56
2022/07/21 01:00:26;;;;;;;0.40;0.20;;;;;;;20.86;76.78;95600.09;5133867;27;20461;-56
2022/07/21 01:02:55;;;;;;;0.50;0.30;;;;;;;20.79;77.57;95597.13;5133059;27;20483;-56
2022/07/21 01:05:24;;;;;;;0.40;0.20;;;;;;;20.72;78.64;95584.16;5133824;27;20466;-56
2022/07/21 01:07:54;;;;;;;0.40;0.20;;;;;;;20.70;78.58;95586.41;5133898;27;20483;-55
2022/07/21 01:10:25;;;;;;;0.40;0.30;;;;;;;20.65;77.84;95577.72;5133455;27;20518;-55
2022/07/21 01:12:54;;;;;;;0.40;0.20;;;;;;;20.35;77.88;95535.75;5133853;27;20754;-55
2022/07/21 01:15:24;;;;;;;0.40;0.30;;;;;;;20.48;78.15;95553.59;5133621;27;20874;-55
2022/07/21 01:17:53;;;;;;;0.50;0.40;;;;;;;20.26;80.08;95587.75;5133171;27;20571;-56
2022/07/21 01:20:24;;;;;;;0.53;0.53;;;;;;;20.46;79.64;95583.53;5132766;27;20466;-55
2022/07/21 01:22:56;;;;;;;0.40;0.20;;;;;;;20.60;80.05;95583.28;5133365;27;20480;-56
2022/07/21 01:25:25;;;;;;;0.40;0.23;;;;;;;20.64;79.79;95589.63;5133432;27;20517;-56
2022/07/21 01:27:53;;;;;;;0.40;0.20;;;;;;;20.61;79.02;95587.56;5133185;27;20514;-56
2022/07/21 01:30:22;;;;;;;0.40;0.30;;;;;;;20.29;78.57;95537.06;5132870;27;20510;-56
2022/07/21 01:32:51;;;;;;;0.40;0.20;;;;;;;20.61;78.39;95592.97;5133126;27;20415;-55
2022/07/21 01:35:19;;;;;;;0.40;0.20;;;;;;;20.58;78.40;95580.94;5133087;27;20462;-55
2022/07/21 01:37:48;;;;;;;0.40;0.20;;;;;;;20.59;79.16;95587.88;5132965;27;20462;-55
2022/07/21 01:43:06;;;;;;;0.40;0.30;;;;;;;20.16;81.66;95579.22;5133267;27;20501;-55
2022/07/21 01:45:40;;;;;;;0.40;0.27;;;;;;;20.37;79.32;95585.47;5132739;27;20426;-56
2022/07/21 01:48:09;;;;;;;0.40;0.30;;;;;;;20.34;78.41;95580.72;5133201;27;20442;-56
2022/07/21 01:50:38;;;;;;;0.40;0.30;;;;;;;20.31;80.48;95584.09;5132980;27;21038;-55
2022/07/21 01:53:06;;;;;;;0.50;0.37;;;;;;;20.15;81.22;95589.19;5133450;28;20479;-55
2022/07/21 01:55:36;;;;;;;0.40;0.20;;;;;;;20.20;80.95;95580.94;5132942;28;20427;-55
2022/07/21 01:58:05;;;;;;;0.40;0.20;;;;;;;19.96;81.60;95537.66;5132552;28;20486;-55
2022/07/21 02:00:34;;;;;;;0.40;0.20;;;;;;;20.11;84.69;95572.09;5132865;28;20465;-55
2022/07/21 02:03:02;;;;;;;0.60;0.57;;;;;;;19.57;92.34;95580.97;5133063;28;20501;-55
2022/07/21 02:05:31;;;;;;;0.50;0.30;;;;;;;18.81;100.00;95588.72;5132305;28;20422;-55
2022/07/21 02:07:59;;;;;;;0.47;0.30;;;;;;;18.61;100.00;95592.00;5132725;28;20422;-55
2022/07/21 02:10:28;;;;;;;0.43;0.30;;;;;;;19.03;100.00;95590.44;5133342;28;20465;-55
2022/07/21 02:12:58;;;;;;;0.40;0.30;;;;;;;19.42;96.66;95584.97;5133100;27;20493;-55
2022/07/21 02:15:26;;;;;;;0.40;0.30;;;;;;;19.46;97.54;95577.81;5135889;27;20525;-55
2022/07/21 02:17:55;;;;;;;0.40;0.20;;;;;;;19.48;97.63;95588.28;5136309;27;20474;-55
2022/07/21 02:20:24;;;;;;;0.50;0.30;;;;;;;18.98;100.00;95583.34;5136781;27;20461;-55
2022/07/21 02:22:52;;;;;;;0.70;0.67;;;;;;;18.38;100.00;95588.59;5137166;27;20450;-55
2022/07/21 02:25:21;;;;;;;0.60;0.50;;;;;;;18.36;100.00;95587.31;5136590;27;20465;-55
2022/07/21 02:27:50;;;;;;;0.40;0.30;;;;;;;18.36;100.00;95588.13;5137056;27;20433;-55
2022/07/21 02:30:19;;;;;;;0.40;0.30;;;;;;;18.27;100.00;95589.97;5136659;27;20458;-55
2022/07/21 02:32:48;;;;;;;0.60;0.30;;;;;;;18.30;100.00;95583.97;5136440;27;20458;-55
2022/07/21 02:35:17;;;;;;;1.77;0.60;;;;;;;18.23;100.00;95582.84;5135966;27;20441;-55
2022/07/21 02:37:45;;;;;;;0.50;0.40;;;;;;;18.21;100.00;95552.88;5136556;27;20578;-54
2022/07/21 02:40:14;;;;;;;0.70;0.50;;;;;;;18.89;100.00;95579.06;5136049;27;20465;-55
2022/07/21 02:42:43;;;;;;;2.10;0.40;;;;;;;18.88;100.00;95582.84;5136545;27;20502;-54
2022/07/21 02:45:12;;;;;;;0.60;0.50;;;;;;;18.92;100.00;95579.22;5135607;27;20525;-54
2022/07/21 02:47:53;;;;;;;0.50;0.30;;;;;;;18.94;100.00;95579.72;5136715;27;20442;-54
2022/07/21 02:50:23;;;;;;;0.50;0.30;;;;;;;19.07;100.00;95574.50;5136787;27;20509;-54
2022/07/21 02:52:55;;;;;;;0.50;0.40;;;;;;;19.07;100.00;95569.13;5136249;27;20458;-54
2022/07/21 02:55:24;;;;;;;0.40;0.30;;;;;;;19.11;100.00;95575.44;5136491;27;20526;-54
2022/07/21 02:58:07;;;;;;;0.50;0.30;;;;;;;19.13;100.00;95575.91;5136324;27;20532;-54
2022/07/21 03:00:37;;;;;;;0.40;0.20;;;;;;;19.16;100.00;95567.22;5135859;27;20471;-54
2022/07/21 03:03:08;;;;;;;0.40;0.30;;;;;;;19.21;100.00;95569.75;5136010;27;20429;-54
2022/07/21 03:05:37;;;;;;;0.40;0.23;;;;;;;19.25;100.00;95576.84;5136337;27;20501;-54
2022/07/21 03:08:07;;;;;;;0.40;0.20;;;;;;;19.27;100.00;95576.56;5135921;27;20908;-54
2022/07/21 03:10:36;;;;;;;0.53;0.40;;;;;;;19.31;100.00;95574.78;5134998;27;20995;-54
2022/07/21 03:13:05;;;;;;;0.60;0.30;;;;;;;18.79;100.00;95582.88;5136156;27;20779;-54
2022/07/21 03:15:34;;;;;;;0.50;0.30;;;;;;;18.11;100.00;95478.03;5135879;27;20455;-54
2022/07/21 03:18:03;;;;;;;0.60;0.50;;;;;;;18.05;100.00;95584.69;5135449;27;20543;-54
2022/07/21 03:20:34;;;;;;;0.90;0.50;;;;;;;17.82;100.00;95591.19;5136148;27;20506;-54
2022/07/21 03:23:03;;;;;;;0.50;0.30;;;;;;;17.69;100.00;95594.75;5135660;27;20513;-54
2022/07/21 03:25:32;;;;;;;0.73;0.73;;;;;;;18.17;100.00;95584.88;5134821;27;20450;-54
2022/07/21 03:28:01;;;;;;;0.90;0.50;;;;;;;18.28;100.00;95575.47;5135551;27;20488;-54
2022/07/21 03:30:29;;;;;;;0.40;0.30;;;;;;;18.19;100.00;95592.63;5135580;27;20437;-54
2022/07/21 03:32:58;;;;;;;0.80;0.67;;;;;;;18.20;100.00;95591.50;5135521;27;20422;-54
2022/07/21 03:35:27;;;;;;;0.50;0.50;;;;;;;18.21;100.00;95587.75;5135697;27;20418;-54
2022/07/21 03:37:59;;;;;;;0.40;0.20;;;;;;;18.34;100.00;95584.94;5135032;27;20465;-54
2022/07/21 03:40:30;;;;;;;0.50;0.40;;;;;;;18.41;100.00;95584.50;5135341;27;20431;-53
2022/07/21 03:43:01;;;;;;;0.80;0.40;;;;;;;18.54;100.00;95588.97;5135109;27;20454;-53
2022/07/21 03:45:31;;;;;;;0.60;0.33;;;;;;;18.62;100.00;95585.50;5134430;27;20418;-53
2022/07/21 03:48:00;;;;;;;0.40;0.30;;;;;;;18.47;100.00;95569.06;5135089;27;20431;-54
2022/07/21 03:50:29;;;;;;;2.40;2.20;;;;;;;18.73;100.00;95594.84;5135076;27;20517;-54
2022/07/21 03:53:00;;;;;;;0.40;0.30;;;;;;;18.77;100.00;95595.78;5134274;27;20980;-54
2022/07/21 03:55:29;;;;;;;0.50;0.40;;;;;;;18.86;100.00;95587.75;5134984;27;20479;-54
2022/07/21 03:58:00;;;;;;;0.40;0.20;;;;;;;18.98;100.00;95594.09;5135215;27;20449;-54
2022/07/21 04:00:32;;;;;;;0.40;0.30;;;;;;;18.95;100.00;95581.28;5135164;27;20449;-54
2022/07/21 04:03:02;;;;;;;0.40;0.30;;;;;;;19.14;100.00;95599.00;5134732;27;20434;-54
2022/07/21 04:05:31;;;;;;;0.40;0.30;;;;;;;19.20;100.00;95595.06;5134793;27;20517;-54
2022/07/21 04:08:01;;;;;;;0.40;0.30;;;;;;;19.28;100.00;95597.72;5134691;27;20450;-54
2022/07/21 04:10:32;;;;;;;0.50;0.30;;;;;;;19.36;100.00;95599.63;5134147;27;20467;-55
2022/07/21 04:13:03;;;;;;;0.50;0.30;;;;;;;19.46;100.00;95587.78;5134909;27;20529;-55
2022/07/21 04:15:32;;;;;;;0.50;0.30;;;;;;;19.20;100.00;95525.97;5134823;27;20471;-54
2022/07/21 04:18:01;;;;;;;0.50;0.30;;;;;;;19.68;99.41;95584.13;5133766;27;20558;-54
2022/07/21 04:20:29;;;;;;;0.50;0.30;;;;;;;19.71;97.92;95586.94;5134383;27;20495;-55
2022/07/21 04:22:58;;;;;;;0.40;0.20;;;;;;;19.73;98.50;95587.44;5134335;27;20431;-55
2022/07/21 04:25:29;;;;;;;0.50;0.30;;;;;;;19.82;97.99;95582.81;5134508;27;20513;-55
2022/07/21 04:27:59;;;;;;;0.50;0.40;;;;;;;19.92;95.58;95585.16;5134263;27;20487;-55
2022/07/21 04:30:27;;;;;;;0.40;0.30;;;;;;;19.84;93.03;95579.78;5132122;27;20969;-55
2022/07/21 04:32:56;;;;;;;0.40;0.20;;;;;;;19.52;92.92;95587.31;5132082;27;20423;-55
2022/07/21 04:35:24;;;;;;;0.40;0.30;;;;;;;19.86;93.31;95575.66;5131763;27;20426;-55
2022/07/21 04:37:53;;;;;;;0.40;0.30;;;;;;;19.91;86.91;95566.66;5130787;27;20510;-55
2022/07/21 04:40:21;;;;;;;0.40;0.30;;;;;;;20.06;86.47;95580.34;5132319;27;20506;-55
2022/07/21 04:42:51;;;;;;;0.83;0.30;;;;;;;20.20;84.06;95586.31;5133005;27;20458;-55
2022/07/21 04:45:20;;;;;;;1.83;0.50;;;;;;;20.17;82.43;95586.16;5133719;27;20426;-55
2022/07/21 04:47:51;;;;;;;0.53;0.40;;;;;;;20.17;81.70;95586.97;5133699;27;20467;-55
2022/07/21 04:50:22;;;;;;;0.50;0.50;;;;;;;19.81;91.81;95583.91;5133617;27;20483;-55
2022/07/21 04:52:51;;;;;;;0.50;0.40;;;;;;;19.08;100.00;95587.59;5133576;27;20494;-55
2022/07/21 04:55:20;;;;;;;2.50;0.37;;;;;;;19.05;100.00;95592.84;5133787;27;20466;-55
2022/07/21 04:57:52;;;;;;;0.63;0.40;;;;;;;19.26;100.00;95596.47;5133921;27;20450;-55
2022/07/21 05:00:22;;;;;;;0.60;0.53;;;;;;;19.00;100.00;95597.25;5133413;27;20557;-55
2022/07/21 05:02:52;;;;;;;0.60;0.60;;;;;;;19.10;100.00;95600.75;5133627;27;20423;-55
2022/07/21 05:05:20;;;;;;;0.40;0.30;;;;;;;19.27;100.00;95600.75;5133412;27;20867;-55
2022/07/21 05:07:49;;;;;;;0.53;0.50;;;;;;;19.11;100.00;95605.00;5133331;27;20469;-55
2022/07/21 05:10:20;;;;;;;0.50;0.40;;;;;;;19.73;100.00;95603.56;5133211;27;20521;-56
2022/07/21 05:12:51;;;;;;;0.97;0.90;;;;;;;19.61;100.00;95600.72;5133266;27;20423;-55
2022/07/21 05:15:19;;;;;;;0.60;0.40;;;;;;;19.94;100.00;95582.13;5133065;27;20972;-55
2022/07/21 05:17:47;;;;;;;0.40;0.30;;;;;;;20.55;100.00;95591.56;5133339;27;20569;-55
2022/07/21 05:20:16;;;;;;;0.50;0.40;;;;;;;19.94;100.00;95592.91;5133098;27;21055;-56
2022/07/21 05:22:44;;;;;;;0.70;0.40;;;;;;;19.86;100.00;95597.19;5133132;27;20540;-56
2022/07/21 05:25:13;;;;;;;0.70;0.70;;;;;;;20.07;100.00;95591.91;5133421;27;20505;-56
2022/07/21 05:27:41;;;;;;;0.60;0.40;;;;;;;19.88;100.00;95589.63;5132866;27;20495;-55
2022/07/21 05:30:12;;;;;;;1.37;0.50;;;;;;;19.57;100.00;95575.59;5133179;27;20498;-56
2022/07/21 05:32:41;;;;;;;0.80;0.50;;;;;;;20.09;100.00;95590.47;5132970;27;20492;-56
2022/07/21 05:35:15;;;;;;;0.40;0.30;;;;;;;19.93;100.00;95591.34;5133145;27;20949;-55
2022/07/21 05:37:45;;;;;;;0.60;0.50;;;;;;;20.16;100.00;95601.53;5132896;27;20920;-55
2022/07/21 05:40:13;;;;;;;0.63;0.63;;;;;;;20.03;100.00;95593.69;5132718;27;20465;-55
2022/07/21 05:42:42;;;;;;;0.60;0.50;;;;;;;20.97;100.00;95592.44;5133073;27;20503;-55
2022/07/21 05:45:12;;;;;;;0.50;0.40;;;;;;;20.99;100.00;95596.38;5133019;27;20476;-55
2022/07/21 05:47:41;;;;;;;0.80;0.80;;;;;;;20.97;100.00;95593.22;5132552;27;20427;-55
2022/07/21 05:50:11;;;;;;;0.50;0.47;;;;;;;21.68;95.39;95595.81;5132685;27;20431;-55
2022/07/21 05:52:39;;;;;;;0.60;0.40;;;;;;;21.77;97.53;95596.50;5132917;27;20790;-60
2022/07/21 05:55:09;;;;;;;1.33;1.33;;;;;;;22.08;90.75;95596.84;5132984;28;20423;-58
2022/07/21 05:57:38;;;;;;;8.90;0.40;;;;;;;22.19;100.00;95591.81;5132573;28;20446;-58
2022/07/21 06:00:16;;;;;;;0.50;0.50;;;;;;;22.35;94.24;95588.09;5132921;28;20470;-57
2022/07/21 06:02:45;;;;;;;0.83;0.50;;;;;;;21.80;92.02;95549.97;5132586;28;20881;-57
2022/07/21 06:05:14;;;;;;;0.60;0.60;;;;;;;21.64;93.58;95584.91;5132609;28;20427;-57
2022/07/21 06:07:42;;;;;;;0.50;0.40;;;;;;;21.96;93.91;95584.09;5132774;28;20455;-57
2022/07/21 06:10:11;;;;;;;0.67;0.63;;;;;;;22.26;92.67;95584.72;5132904;28;20453;-57
2022/07/21 06:12:44;;;;;;;0.50;0.40;;;;;;;23.06;86.22;95585.72;5132503;28;20430;-56
2022/07/21 06:15:13;;;;;;;0.63;0.63;;;;;;;22.72;82.12;95580.78;5132527;28;20776;-56
2022/07/21 06:17:44;;;;;;;0.50;0.40;;;;;;;22.86;78.37;95580.44;5132301;28;20474;-56
2022/07/21 06:20:14;;;;;;;0.40;0.30;;;;;;;23.32;77.58;95558.25;5132382;28;20528;-56
2022/07/21 06:22:42;;;;;;;1.17;0.40;;;;;;;23.50;75.45;95564.97;5132415;28;20514;-56
2022/07/21 06:25:10;;;;;;;0.67;0.67;;;;;;;23.58;71.73;95569.44;5131852;28;20928;-56
2022/07/21 06:27:39;;;;;;;0.40;0.30;;;;;;;23.82;67.99;95557.72;5132207;28;20450;-56
2022/07/21 06:30:08;;;;;;;0.70;0.57;;;;;;;23.83;66.18;95549.22;5131821;28;20450;-56
2022/07/21 06:32:37;;;;;;;0.70;0.53;;;;;;;24.44;62.06;95556.94;5131991;28;20422;-56
2022/07/21 06:35:08;;;;;;;0.40;0.33;;;;;;;24.27;64.80;95552.69;5132300;28;20427;-56
2022/07/21 06:37:36;;;;;;;0.60;0.60;;;;;;;24.73;66.42;95542.94;5132228;28;20491;-56
2022/07/21 06:40:06;;;;;;;0.40;0.30;;;;;;;24.91;68.06;95549.56;5131788;28;20469;-57
2022/07/21 06:42:35;;;;;;;0.90;0.90;;;;;;;24.85;65.86;95550.97;5131745;28;20465;-56
2022/07/21 06:45:04;;;;;;;0.50;0.30;;;;;;;25.17;64.06;95547.00;5131943;28;20470;-56
2022/07/21 06:47:33;;;;;;;0.40;0.40;;;;;;;25.45;60.08;95548.75;5132349;28;20445;-56
2022/07/21 06:50:03;;;;;;;0.67;0.40;;;;;;;25.45;56.06;95546.03;5132414;28;20796;-56
2022/07/21 06:52:35;;;;;;;0.73;0.50;;;;;;;25.60;59.81;95542.47;5131620;28;20429;-56
2022/07/21 06:55:05;;;;;;;0.50;0.47;;;;;;;24.90;56.24;95545.28;5132427;28;20479;-56
2022/07/21 06:57:34;;;;;;;0.67;0.67;;;;;;;25.15;57.20;95538.44;5131956;28;20521;-56
2022/07/21 07:00:04;;;;;;;6.17;0.50;;;;;;;25.27;57.80;95528.59;5132618;27;20501;-55
2022/07/21 07:02:32;;;;;;;0.50;0.40;;;;;;;25.79;59.81;95534.28;5136151;27;20501;-54
2022/07/21 07:05:01;;;;;;;0.47;0.43;;;;;;;26.06;56.45;95522.34;5135788;27;20422;-55
2022/07/21 07:07:36;;;;;;;0.40;0.40;;;;;;;26.70;56.96;95517.94;5134984;27;20431;-55
2022/07/21 07:10:05;;;;;;;0.50;0.40;;;;;;;27.10;56.89;95516.19;5135623;27;20458;-54
2022/07/21 07:12:35;;;;;;;0.50;0.50;;;;;;;27.04;51.33;95492.41;5135648;27;20423;-54
2022/07/21 07:15:25;;;;;;;0.50;0.30;;;;;;;27.38;53.33;95504.06;5135271;27;20434;-54
2022/07/21 07:17:53;;;;;;;1.00;0.40;;;;;;;27.55;52.02;95504.31;5135511;27;20994;-55
2022/07/21 07:20:22;;;;;;;0.53;0.53;;;;;;;27.30;49.16;95505.16;5135259;27;20462;-55
2022/07/21 07:22:52;;;;;;;0.50;0.40;;;;;;;27.59;47.86;95502.41;5135450;27;20450;-55
2022/07/21 07:25:21;;;;;;;0.50;0.40;;;;;;;27.99;47.85;95495.41;5135722;27;20498;-55
2022/07/21 07:27:59;;;;;;;0.40;0.30;;;;;;;28.22;49.24;95488.63;5135472;27;20438;-55
2022/07/21 07:30:27;;;;;;;0.60;0.30;;;;;;;28.58;49.41;95495.13;5135599;27;20415;-55
2022/07/21 07:32:56;;;;;;;0.30;0.20;;;;;;;28.66;49.64;95491.31;5135434;27;20465;-55
2022/07/21 07:35:24;;;;;;;0.40;0.33;;;;;;;28.79;48.00;95486.31;5135177;27;20948;-55
2022/07/21 07:37:54;;;;;;;1.03;0.73;;;;;;;28.64;46.62;95477.25;5135494;27;20467;-56
2022/07/21 07:40:24;;;;;;;3.27;0.70;;;;;;;28.49;45.02;95481.03;5134955;27;20508;-56
2022/07/21 07:42:52;;;;;;;0.50;0.50;;;;;;;28.64;44.42;95473.75;5135286;27;20423;-57
2022/07/21 07:45:21;;;;;;;0.43;0.43;;;;;;;29.18;45.05;95468.16;5135011;27;20466;-57
2022/07/21 07:47:50;;;;;;;0.43;0.30;;;;;;;29.89;42.63;95466.44;5135209;27;20458;-57
2022/07/21 07:50:18;;;;;;;0.97;0.50;;;;;;;29.96;42.14;95462.94;5134929;27;20972;-57
2022/07/21 07:52:47;;;;;;;0.40;0.30;;;;;;;29.90;40.72;95459.84;5135042;27;20468;-57
2022/07/21 07:55:17;;;;;;;0.90;0.70;;;;;;;29.68;40.96;95469.13;5135030;27;20453;-57
2022/07/21 07:57:45;;;;;;;0.50;0.40;;;;;;;30.65;39.68;95466.06;5135015;27;20517;-57
2022/07/21 08:00:16;;;;;;;0.40;0.33;;;;;;;30.31;40.17;95399.28;5134758;27;21007;-57
2022/07/21 08:03:05;;;;;;;0.40;0.33;;;;;;;30.51;40.39;95449.69;5134458;27;20446;-57
2022/07/21 08:05:33;;;;;;;0.40;0.30;;;;;;;31.07;38.51;95441.31;5134361;27;20466;-56
2022/07/21 08:08:02;;;;;;;0.40;0.30;;;;;;;30.93;39.31;95444.09;5134569;27;20526;-56
2022/07/21 08:10:32;;;;;;;0.40;0.30;;;;;;;31.44;37.58;95440.75;5134987;27;20410;-56
2022/07/21 08:13:11;;;;;;;0.43;0.40;;;;;;;31.24;36.52;95415.03;5133875;27;20436;-63
2022/07/21 08:15:40;;;;;;;0.40;0.30;;;;;;;31.16;37.29;95433.47;5134486;27;20427;-62
2022/07/21 08:18:09;;;;;;;0.60;0.50;;;;;;;32.16;34.59;95428.16;5134820;27;20430;-62
2022/07/21 08:20:38;;;;;;;0.40;0.30;;;;;;;32.11;35.83;95429.38;5134695;27;20544;-62
2022/07/21 08:23:14;;;;;;;0.40;0.33;;;;;;;31.60;35.81;95432.09;5134640;27;20514;-61
2022/07/21 08:25:45;;;;;;;4.20;0.47;;;;;;;31.65;37.65;95417.97;5134577;27;20450;-61
2022/07/21 08:28:14;;;;;;;0.40;0.30;;;;;;;31.69;37.05;95421.44;5134760;27;20492;-62
2022/07/21 08:30:43;;;;;;;0.40;0.40;;;;;;;31.50;36.92;95417.25;5134275;27;20452;-61
2022/07/21 08:33:11;;;;;;;0.43;0.30;;;;;;;31.96;36.03;95417.72;5134081;27;20436;-57
2022/07/21 08:35:40;;;;;;;0.40;0.30;;;;;;;32.11;36.04;95425.84;5134336;27;20860;-57
2022/07/21 08:38:11;;;;;;;0.40;0.30;;;;;;;30.50;35.94;95251.16;5134085;27;20434;-56
2022/07/21 08:40:41;;;;;;;0.70;0.53;;;;;;;32.30;34.95;95406.09;5134232;27;20464;-57
2022/07/21 08:43:14;;;;;;;0.50;0.40;;;;;;;32.19;34.71;95408.94;5133937;27;20445;-56
2022/07/21 08:45:43;;;;;;;0.63;0.63;;;;;;;31.38;36.12;95344.50;5134274;27;20788;-56
2022/07/21 08:48:14;;;;;;;0.57;0.40;;;;;;;32.50;36.55;95391.38;5133757;27;20472;-57
2022/07/21 08:50:42;;;;;;;0.80;0.80;;;;;;;32.20;34.95;95402.28;5134052;27;20501;-56
2022/07/21 08:53:11;;;;;;;0.40;0.40;;;;;;;32.62;36.08;95388.13;5133752;27;20533;-56
2022/07/21 08:55:40;;;;;;;0.50;0.50;;;;;;;33.44;34.25;95382.44;5133532;27;20498;-56
2022/07/21 08:58:11;;;;;;;0.40;0.30;;;;;;;33.86;34.41;95390.03;5133533;27;20479;-56
2022/07/21 09:00:42;;;;;;;0.70;0.70;;;;;;;32.92;33.47;95392.88;5133676;27;20435;-56
2022/07/21 09:03:14;;;;;;;0.60;0.40;;;;;;;33.33;33.59;95376.28;5133556;27;20940;-56
2022/07/21 09:05:43;;;;;;;1.20;1.10;;;;;;;33.54;35.46;95373.25;5133417;27;20419;-56
2022/07/21 09:08:11;;;;;;;0.30;0.20;;;;;;;34.12;34.04;95362.94;5133062;27;20950;-57
2022/07/21 09:10:40;;;;;;;0.40;0.40;;;;;;;34.37;33.34;95361.28;5133454;27;20428;-56
2022/07/21 09:13:09;;;;;;;0.43;0.43;;;;;;;34.77;34.55;95361.34;5133424;27;20460;-57
2022/07/21 09:15:39;;;;;;;0.40;0.30;;;;;;;34.17;33.57;95356.94;5133673;27;20880;-56
2022/07/21 09:18:11;;;;;;;0.90;0.60;;;;;;;33.93;33.68;95350.63;5092798;28;20458;-57
2022/07/21 09:20:48;;;;;;;0.53;0.43;;;;;;;33.99;33.78;95342.69;5092212;28;20970;-57
2022/07/21 09:23:19;;;;;;;0.70;0.70;;;;;;;34.54;32.83;95342.88;5092111;28;20458;-57
2022/07/21 09:25:52;;;;;;;0.40;0.30;;;;;;;35.42;31.87;95338.28;5091939;28;20518;-56
2022/07/21 09:28:22;;;;;;;0.40;0.40;;;;;;;35.05;33.59;95341.50;5092202;28;20463;-56
2022/07/21 09:30:58;;;;;;;0.40;0.33;;;;;;;34.89;32.78;95336.69;5092453;28;20431;-56
2022/07/21 09:33:31;;;;;;;0.70;0.60;;;;;;;35.30;33.10;95332.69;5092262;28;20228;-57
2022/07/21 09:36:04;;;;;;;0.40;0.37;;;;;;;35.89;31.78;95330.50;5092229;28;20650;-56
2022/07/21 09:38:34;;;;;;;0.77;0.50;;;;;;;35.29;33.08;95309.09;5092077;28;20298;-57
2022/07/21 09:41:11;;;;;;;0.37;0.33;;;;;;;35.88;32.73;95323.44;5092502;28;20246;-56
2022/07/21 09:43:43;;;;;;;0.40;0.40;;;;;;;36.09;33.21;95322.16;5092049;28;20178;-56
2022/07/21 09:46:17;;;;;;;0.40;0.37;;;;;;;36.09;32.95;95314.66;5092416;28;20510;-56
2022/07/21 09:48:48;;;;;;;1.23;0.40;;;;;;;36.16;33.24;95316.44;5092154;28;20674;-57
2022/07/21 09:51:40;;;;;;;0.50;0.43;;;;;;;36.24;32.69;95309.53;5091702;28;20979;-56
2022/07/21 09:54:11;;;;;;;0.83;0.40;;;;;;;35.69;33.26;95310.53;5091935;28;20186;-56
2022/07/21 09:56:41;;;;;;;0.40;0.30;;;;;;;36.17;32.31;95307.75;5092041;28;20188;-56
2022/07/21 09:59:11;;;;;;;0.40;0.30;;;;;;;36.98;29.65;95307.50;5091795;28;20276;-56
2022/07/21 10:01:42;;;;;;;0.30;0.20;;;;;;;37.47;28.93;95294.16;5091817;28;20201;-56
2022/07/21 10:04:11;;;;;;;0.30;0.30;;;;;;;37.76;29.01;95297.53;5091823;28;20201;-56
2022/07/21 10:06:40;;;;;;;0.30;0.30;;;;;;;37.04;27.44;95297.41;5091756;28;20229;-56
2022/07/21 10:09:10;;;;;;;0.40;0.40;;;;;;;37.14;26.25;95290.78;5091812;28;20272;-56
2022/07/21 10:11:41;;;;;;;0.40;0.30;;;;;;;37.93;23.74;95284.34;5091774;28;20221;-56
2022/07/21 10:14:11;;;;;;;0.40;0.30;;;;;;;38.05;24.77;95289.09;5091479;28;20194;-55
2022/07/21 10:16:41;;;;;;;0.50;0.30;;;;;;;38.12;23.53;95269.47;5107928;28;20220;-55
2022/07/21 10:19:24;;;;;;;0.30;0.30;;;;;;;37.65;22.49;95277.00;5132925;28;20192;-56
2022/07/21 10:22:02;;;;;;;0.50;0.40;;;;;;;37.84;22.78;95270.41;5132435;28;20294;-56
2022/07/21 10:24:32;;;;;;;0.50;0.32;;;;;;;37.87;21.62;95264.03;5132206;28;20199;-55
2022/07/21 10:27:02;;;;;;;0.40;0.40;;;;;;;37.09;22.38;95232.56;5132507;28;20215;-56
2022/07/21 10:29:52;;;;;;;0.40;0.40;;;;;;;37.94;23.08;95261.78;5132392;28;20527;-56
2022/07/21 10:32:30;;;;;;;0.40;0.30;;;;;;;38.22;22.64;95254.47;5132448;28;20279;-56
2022/07/21 10:35:00;;;;;;;0.30;0.20;;;;;;;38.30;21.86;95253.03;5132937;27;20235;-56
2022/07/21 10:37:49;;;;;;;0.50;0.30;;;;;;;38.87;21.15;95218.47;5136695;27;20551;-55
2022/07/21 10:40:40;;;;;;;0.40;0.30;;;;;;;39.36;20.37;95249.03;5136056;27;20227;-55
2022/07/21 10:43:40;;;;;;;0.50;0.45;;;;;;;38.72;21.22;95239.59;5136169;27;20742;-57
2022/07/21 10:46:35;;;;;;;0.30;0.25;;;;;;;38.68;21.27;95238.97;5135316;27;20180;-57
2022/07/21 10:49:07;;;;;;;0.30;0.30;;;;;;;38.49;21.00;95232.53;5136162;27;20187;-56
2022/07/21 10:51:38;;;;;;;0.30;0.30;;;;;;;38.31;21.65;95228.88;5136355;27;20617;-56
2022/07/21 10:54:34;;;;;;;0.40;0.40;;;;;;;38.92;21.68;95225.41;5136179;27;20295;-55
2022/07/21 10:57:29;;;;;;;0.43;0.35;;;;;;;38.91;20.78;95229.44;5136025;27;20216;-55
2022/07/21 11:00:20;;;;;;;0.82;0.40;;;;;;;39.62;20.97;95222.59;5136041;27;20279;-56
2022/07/21 11:02:52;;;;;;;0.40;0.30;;;;;;;39.00;21.31;95221.91;5135713;27;20237;-56
2022/07/21 11:05:24;;;;;;;0.30;0.20;;;;;;;38.97;21.97;95172.16;5135631;27;20532;-56
2022/07/21 11:08:16;;;;;;;0.40;0.30;;;;;;;39.11;20.55;95208.41;5136127;27;20188;-56
2022/07/21 11:10:48;;;;;;;1.30;0.35;;;;;;;39.26;20.35;95206.66;5135849;27;20534;-56
2022/07/21 11:13:18;;;;;;;0.30;0.30;;;;;;;39.26;20.88;95198.34;5135762;27;20184;-58
2022/07/21 11:15:55;;;;;;;0.25;0.25;;;;;;;39.84;21.13;95201.06;5135499;27;20172;-57
2022/07/21 11:18:25;;;;;;;0.30;0.30;;;;;;;40.11;20.25;95194.75;5135947;27;20219;-57
2022/07/21 11:21:13;;;;;;;0.50;0.30;;;;;;;39.65;22.30;95205.03;5135264;27;20669;-56
2022/07/21 11:23:45;;;;;;;0.38;0.38;;;;;;;39.15;21.76;95202.72;5135720;27;20340;-57
2022/07/21 11:26:16;;;;;;;0.38;0.38;;;;;;;38.99;22.36;95200.22;5135579;27;20218;-56
2022/07/21 11:28:46;;;;;;;0.30;0.30;;;;;;;39.17;24.51;95153.13;5135737;27;20562;-56
2022/07/21 11:31:18;;;;;;;0.30;0.30;;;;;;;39.98;20.50;95194.13;5135503;27;20184;-56
2022/07/21 11:33:48;;;;;;;0.30;0.30;;;;;;;39.24;21.84;95136.25;5135464;27;20192;-56
2022/07/21 11:36:29;;;;;;;0.40;0.40;;;;;;;38.67;20.87;95193.88;5135615;27;20278;-56
2022/07/21 11:39:06;;;;;;;0.30;0.20;;;;;;;39.60;21.79;95169.56;5135481;27;20283;-57
2022/07/21 11:41:35;;;;;;;0.50;0.47;;;;;;;39.28;22.39;95181.22;5135497;27;20184;-56
2022/07/21 11:44:05;;;;;;;0.40;0.40;;;;;;;39.00;22.86;95174.00;5134968;27;20258;-55
2022/07/21 11:46:48;;;;;;;0.30;0.30;;;;;;;38.71;21.14;95183.41;5134656;27;20216;-56
2022/07/21 11:49:18;;;;;;;0.68;0.30;;;;;;;38.30;21.18;95175.50;5134476;27;20738;-55
2022/07/21 11:51:50;;;;;;;0.30;0.30;;;;;;;38.81;22.84;95169.66;5135047;27;20242;-55